createdAt,value
2017-12-20T00:02:04.275Z,19.67
2017-12-20T00:04:32.019Z,19.20
2017-12-20T00:06:59.742Z,19.67
2017-12-20T00:09:27.434Z,19.10
2017-12-20T00:11:54.754Z,20.50
2017-12-20T00:14:22.143Z,20.80
2017-12-20T00:16:49.481Z,20.13
2017-12-20T00:19:17.178Z,18.97
2017-12-20T00:21:44.937Z,18.73
2017-12-20T00:24:12.698Z,18.77
2017-12-20T00:26:40.015Z,21.07
2017-12-20T00:29:07.373Z,19.10
2017-12-20T00:31:34.763Z,20.63
2017-12-20T00:34:02.082Z,22.47
2017-12-20T00:36:29.454Z,21.50
2017-12-20T00:38:56.837Z,19.97
2017-12-20T00:41:24.486Z,20.43
2017-12-20T00:43:51.834Z,19.50
2017-12-20T00:46:19.193Z,19.87
2017-12-20T00:48:46.546Z,19.13
2017-12-20T00:51:13.883Z,19.70
2017-12-20T00:53:41.348Z,19.00
2017-12-20T00:56:08.728Z,17.30
2017-12-20T00:58:36.406Z,19.40
2017-12-20T01:01:04.050Z,18.30
2017-12-20T01:03:31.718Z,17.90
2017-12-20T01:05:59.514Z,18.93
2017-12-20T01:08:26.863Z,18.50
2017-12-20T01:10:54.203Z,17.67
2017-12-20T01:13:21.859Z,18.50
2017-12-20T01:15:49.490Z,18.17
2017-12-20T01:18:16.854Z,17.73
2017-12-20T01:20:44.183Z,18.23
2017-12-20T01:23:11.498Z,17.23
2017-12-20T01:25:38.875Z,16.40
2017-12-20T01:28:06.284Z,17.10
2017-12-20T01:30:33.958Z,16.17
2017-12-20T01:33:01.649Z,14.90
2017-12-20T01:35:28.967Z,14.93
2017-12-20T01:37:56.622Z,16.07
2017-12-20T01:40:24.330Z,14.80
2017-12-20T01:42:51.650Z,15.20
2017-12-20T01:45:19.287Z,15.00
2017-12-20T01:47:46.654Z,16.17
2017-12-20T01:50:14.328Z,15.90
2017-12-20T01:52:41.991Z,14.30
2017-12-20T01:55:09.691Z,13.50
2017-12-20T01:57:37.270Z,14.63
2017-12-20T02:00:04.949Z,14.37
2017-12-20T02:02:32.302Z,14.13
2017-12-20T02:04:59.630Z,13.67
2017-12-20T02:07:27.323Z,14.00
2017-12-20T02:09:54.679Z,14.00
2017-12-20T02:12:22.000Z,12.80
2017-12-20T02:14:49.421Z,13.97
2017-12-20T02:17:16.773Z,12.90
2017-12-20T02:19:44.446Z,14.33
2017-12-20T02:22:11.769Z,13.30
2017-12-20T02:24:39.426Z,11.43
2017-12-20T02:27:07.126Z,11.60
2017-12-20T02:29:34.446Z,11.23
2017-12-20T02:32:02.132Z,11.50
2017-12-20T02:34:29.808Z,12.37
2017-12-20T02:36:57.124Z,11.30
2017-12-20T02:39:24.847Z,10.30
2017-12-20T02:41:52.266Z,11.40
2017-12-20T02:44:19.955Z,10.27
2017-12-20T02:46:47.650Z,10.53
2017-12-20T02:49:14.968Z,10.57
2017-12-20T02:51:42.344Z,12.00
2017-12-20T02:54:09.852Z,11.30
2017-12-20T02:56:37.489Z,11.40
2017-12-20T02:59:04.855Z,10.77
2017-12-20T03:01:32.183Z,11.30
2017-12-20T03:03:59.842Z,10.73
2017-12-20T03:06:27.260Z,10.10
2017-12-20T03:08:54.578Z,10.50
2017-12-20T03:11:21.930Z,10.90
2017-12-20T03:13:49.644Z,10.73
2017-12-20T03:16:17.054Z,11.17
2017-12-20T03:18:44.578Z,10.67
2017-12-20T03:21:12.031Z,11.57
2017-12-20T03:23:39.410Z,11.90
2017-12-20T03:26:06.730Z,11.60
2017-12-20T03:28:34.159Z,11.30
2017-12-20T03:31:01.483Z,10.80
2017-12-20T03:33:29.135Z,12.10
2017-12-20T03:35:56.499Z,12.23
2017-12-20T03:38:24.146Z,11.50
2017-12-20T03:40:51.478Z,11.30
2017-12-20T03:43:18.843Z,12.37
2017-12-20T03:45:47.483Z,12.03
2017-12-20T03:48:14.903Z,11.50
2017-12-20T03:50:42.270Z,12.10
2017-12-20T03:53:09.915Z,13.00
2017-12-20T03:55:37.239Z,12.10
2017-12-20T03:58:04.604Z,12.00
2017-12-20T04:00:31.985Z,13.23
2017-12-20T04:02:59.314Z,13.90
2017-12-20T04:05:28.019Z,13.97
2017-12-20T04:07:55.415Z,13.97
2017-12-20T04:10:22.739Z,13.50
2017-12-20T04:12:50.438Z,13.13
2017-12-20T04:15:17.755Z,13.63
2017-12-20T04:17:45.411Z,13.73
2017-12-20T04:20:13.286Z,13.33
2017-12-20T04:22:40.934Z,12.60
2017-12-20T04:25:08.256Z,12.73
2017-12-20T04:27:36.026Z,11.87
2017-12-20T04:30:03.409Z,11.87
2017-12-20T04:32:31.764Z,12.03
2017-12-20T04:34:59.198Z,11.77
2017-12-20T04:37:26.613Z,12.03
2017-12-20T04:39:54.258Z,12.00
2017-12-20T04:42:21.602Z,11.70
2017-12-20T04:44:49.003Z,11.20
2017-12-20T04:47:16.383Z,10.70
2017-12-20T04:49:44.078Z,11.33
2017-12-20T04:52:11.386Z,11.27
2017-12-20T04:54:38.783Z,10.87
2017-12-20T04:57:06.155Z,11.03
2017-12-20T04:59:34.459Z,10.87
2017-12-20T05:02:02.126Z,9.93
2017-12-20T05:04:29.751Z,11.20
2017-12-20T05:06:57.076Z,13.00
2017-12-20T05:09:24.674Z,13.80
2017-12-20T05:11:52.328Z,12.63
2017-12-20T05:14:19.643Z,14.67
2017-12-20T05:16:47.102Z,16.73
2017-12-20T05:19:14.498Z,15.57
2017-12-20T05:21:41.810Z,17.97
2017-12-20T05:24:09.280Z,21.20
2017-12-20T05:26:36.671Z,18.70
2017-12-20T05:29:04.533Z,19.60
2017-12-20T05:31:32.534Z,18.20
2017-12-20T05:34:00.152Z,18.27
2017-12-20T05:36:27.487Z,15.17
2017-12-20T05:38:54.918Z,13.27
2017-12-20T05:41:22.235Z,13.90
2017-12-20T05:43:49.896Z,12.53
2017-12-20T05:46:17.588Z,12.20
2017-12-20T05:48:44.981Z,10.20
2017-12-20T05:51:12.659Z,9.87
2017-12-20T05:53:40.032Z,9.53
2017-12-20T05:56:08.651Z,9.20
2017-12-20T05:58:35.964Z,9.33
2017-12-20T06:01:03.650Z,9.50
2017-12-20T06:03:31.291Z,9.27
2017-12-20T06:05:58.954Z,9.30
2017-12-20T06:08:26.637Z,9.10
2017-12-20T06:10:54.266Z,9.30
2017-12-20T06:13:21.584Z,9.33
2017-12-20T06:15:49.114Z,10.03
2017-12-20T06:18:16.434Z,9.30
2017-12-20T06:20:43.812Z,10.13
2017-12-20T06:23:11.234Z,10.27
2017-12-20T06:25:38.551Z,11.37
2017-12-20T06:28:05.964Z,10.87
2017-12-20T06:30:33.667Z,10.60
2017-12-20T06:33:00.980Z,11.70
2017-12-20T06:35:28.452Z,10.80
2017-12-20T06:37:56.147Z,10.03
2017-12-20T06:40:23.567Z,10.47
2017-12-20T06:42:51.197Z,11.53
2017-12-20T06:45:18.541Z,10.43
2017-12-20T06:47:45.932Z,11.80
2017-12-20T06:50:13.570Z,11.20
2017-12-20T06:52:40.923Z,10.60
2017-12-20T06:55:08.238Z,11.50
2017-12-20T06:57:35.938Z,11.30
2017-12-20T07:00:03.304Z,10.70
2017-12-20T07:02:30.619Z,11.20
2017-12-20T07:04:58.319Z,11.03
2017-12-20T07:07:25.714Z,11.50
2017-12-20T07:09:53.350Z,12.37
2017-12-20T07:12:20.803Z,12.00
2017-12-20T07:14:48.486Z,11.37
2017-12-20T07:17:16.110Z,10.80
2017-12-20T07:19:43.468Z,11.50
2017-12-20T07:22:10.841Z,11.57
2017-12-20T07:24:38.479Z,11.63
2017-12-20T07:27:05.815Z,12.13
2017-12-20T07:29:33.262Z,12.17
2017-12-20T07:32:00.682Z,12.70
2017-12-20T07:34:28.310Z,11.47
2017-12-20T07:36:55.683Z,12.50
2017-12-20T07:39:23.205Z,11.43
2017-12-20T07:41:50.661Z,13.00
2017-12-20T07:44:18.091Z,10.67
2017-12-20T07:46:45.516Z,11.70
2017-12-20T07:49:13.155Z,12.20
2017-12-20T07:51:40.503Z,11.43
2017-12-20T07:54:07.867Z,11.30
2017-12-20T07:56:35.261Z,12.70
2017-12-20T07:59:02.943Z,12.10
2017-12-20T08:01:30.282Z,11.53
2017-12-20T08:03:57.996Z,12.37
2017-12-20T08:06:25.708Z,12.90
2017-12-20T08:08:53.029Z,13.40
2017-12-20T08:11:20.378Z,12.50
2017-12-20T08:13:48.075Z,12.47
2017-12-20T08:16:15.396Z,12.27
2017-12-20T08:18:43.050Z,12.33
2017-12-20T08:21:10.432Z,13.30
2017-12-20T08:23:38.080Z,13.53
2017-12-20T08:26:05.757Z,13.27
2017-12-20T08:28:33.404Z,14.30
2017-12-20T08:31:01.092Z,13.30
2017-12-20T08:33:28.954Z,12.87
2017-12-20T08:35:56.287Z,12.87
2017-12-20T08:38:23.903Z,12.50
2017-12-20T08:40:51.396Z,12.20
2017-12-20T08:43:18.755Z,13.70
2017-12-20T08:45:46.519Z,13.20
2017-12-20T08:48:14.168Z,12.93
2017-12-20T08:50:41.514Z,14.20
2017-12-20T08:53:08.905Z,13.80
2017-12-20T08:55:36.539Z,13.17
2017-12-20T08:58:03.859Z,13.10
2017-12-20T09:00:31.303Z,13.20
2017-12-20T09:02:58.663Z,14.40
2017-12-20T09:05:25.982Z,12.93
2017-12-20T09:07:53.683Z,14.90
2017-12-20T09:10:21.466Z,13.40
2017-12-20T09:12:48.859Z,13.13
2017-12-20T09:15:16.366Z,12.73
2017-12-20T09:17:43.758Z,12.70
2017-12-20T09:20:11.070Z,12.10
2017-12-20T09:22:38.439Z,12.30
2017-12-20T09:25:05.958Z,13.03
2017-12-20T09:27:33.651Z,12.50
2017-12-20T09:30:01.090Z,12.57
2017-12-20T09:32:28.415Z,12.33
2017-12-20T09:34:56.050Z,13.03
2017-12-20T09:37:23.403Z,13.27
2017-12-20T09:39:50.775Z,12.80
2017-12-20T09:42:18.305Z,12.43
2017-12-20T09:44:45.683Z,12.60
2017-12-20T09:47:13.057Z,13.20
2017-12-20T09:49:40.689Z,14.73
2017-12-20T09:52:08.008Z,15.10
2017-12-20T09:54:35.356Z,14.33
2017-12-20T09:57:02.675Z,14.70
2017-12-20T09:59:30.310Z,14.10
2017-12-20T10:01:57.667Z,12.50
2017-12-20T10:04:24.999Z,12.00
2017-12-20T10:06:52.329Z,11.03
2017-12-20T10:09:19.694Z,12.00
2017-12-20T10:11:47.104Z,12.43
2017-12-20T10:14:14.754Z,12.30
2017-12-20T10:16:42.119Z,11.47
2017-12-20T10:19:09.766Z,12.07
2017-12-20T10:21:37.082Z,11.57
2017-12-20T10:24:04.882Z,11.80
2017-12-20T10:26:32.286Z,12.70
2017-12-20T10:28:59.921Z,12.60
2017-12-20T10:31:27.295Z,15.60
2017-12-20T10:33:54.722Z,13.87
2017-12-20T10:36:22.375Z,13.30
2017-12-20T10:38:49.739Z,13.37
2017-12-20T10:41:17.052Z,11.47
2017-12-20T10:43:44.462Z,14.00
2017-12-20T10:46:12.160Z,11.83
2017-12-20T10:48:39.475Z,12.53
2017-12-20T10:51:07.114Z,14.80
2017-12-20T10:53:34.586Z,13.50
2017-12-20T10:56:02.239Z,13.13
2017-12-20T10:58:29.558Z,14.80
2017-12-20T11:00:57.623Z,14.90
2017-12-20T11:03:25.588Z,14.17
2017-12-20T11:05:53.689Z,15.57
2017-12-20T11:08:23.066Z,13.90
2017-12-20T11:10:51.224Z,12.83
2017-12-20T11:13:19.523Z,12.53
2017-12-20T11:15:48.327Z,12.93
2017-12-20T11:18:15.699Z,14.53
2017-12-20T11:20:43.635Z,14.83
2017-12-20T11:23:11.031Z,14.73
2017-12-20T11:25:38.727Z,14.30
2017-12-20T11:28:06.064Z,14.10
2017-12-20T11:30:33.512Z,14.50
2017-12-20T11:33:01.185Z,15.30
2017-12-20T11:35:28.544Z,14.23
2017-12-20T11:37:56.187Z,14.70
2017-12-20T11:40:23.835Z,13.23
2017-12-20T11:42:51.187Z,12.77
2017-12-20T11:45:18.527Z,14.47
2017-12-20T11:47:45.911Z,13.20
2017-12-20T11:50:13.612Z,14.10
2017-12-20T11:52:40.930Z,14.63
2017-12-20T11:55:08.584Z,13.73
2017-12-20T11:57:35.971Z,12.30
2017-12-20T12:00:03.330Z,14.20
2017-12-20T12:02:30.643Z,13.03
2017-12-20T12:04:58.009Z,13.70
2017-12-20T12:07:25.655Z,15.20
2017-12-20T12:09:52.975Z,15.40
2017-12-20T12:12:20.506Z,13.80
2017-12-20T12:14:48.127Z,13.53
2017-12-20T12:17:15.450Z,15.40
2017-12-20T12:19:42.903Z,16.27
2017-12-20T12:22:10.667Z,15.70
2017-12-20T12:24:38.396Z,17.23
2017-12-20T12:27:05.904Z,16.30
2017-12-20T12:29:33.338Z,18.70
2017-12-20T12:32:00.654Z,16.13
2017-12-20T12:34:28.302Z,14.67
2017-12-20T12:36:55.706Z,16.27
2017-12-20T12:39:23.308Z,16.20
2017-12-20T12:41:50.630Z,16.53
2017-12-20T12:44:18.380Z,16.10
2017-12-20T12:46:45.710Z,16.97
2017-12-20T12:49:13.349Z,18.00
2017-12-20T12:51:40.707Z,18.03
2017-12-20T12:54:08.033Z,17.03
2017-12-20T12:56:35.418Z,17.83
2017-12-20T12:59:02.799Z,17.70
2017-12-20T13:01:30.119Z,17.47
2017-12-20T13:03:57.443Z,17.90
2017-12-20T13:06:24.887Z,18.57
2017-12-20T13:08:52.207Z,18.70
2017-12-20T13:11:19.547Z,20.10
2017-12-20T13:13:47.247Z,19.50
2017-12-20T13:16:14.559Z,19.33
2017-12-20T13:18:41.892Z,20.47
2017-12-20T13:21:09.254Z,18.50
2017-12-20T13:23:36.578Z,18.73
2017-12-20T13:26:03.990Z,16.80
2017-12-20T13:28:31.695Z,19.57
2017-12-20T13:30:59.015Z,22.50
2017-12-20T13:33:26.762Z,23.00
2017-12-20T13:35:54.490Z,19.90
2017-12-20T13:38:21.886Z,21.27
2017-12-20T13:40:49.531Z,22.23
2017-12-20T13:43:16.890Z,21.50
2017-12-20T13:45:44.242Z,22.60
2017-12-20T13:48:11.907Z,20.70
2017-12-20T13:50:39.259Z,22.20
2017-12-20T13:53:06.622Z,21.67
2017-12-20T13:55:33.951Z,20.80
2017-12-20T13:58:01.386Z,22.80
2017-12-20T14:00:29.144Z,24.07
2017-12-20T14:02:56.491Z,21.73
2017-12-20T14:05:24.806Z,24.30
2017-12-20T14:07:52.182Z,21.70
2017-12-20T14:10:19.830Z,20.40
2017-12-20T14:12:47.203Z,18.27
2017-12-20T14:15:14.906Z,17.60
2017-12-20T14:17:42.247Z,16.70
2017-12-20T14:20:09.919Z,17.87
2017-12-20T14:22:37.443Z,15.70
2017-12-20T14:25:05.091Z,15.93
2017-12-20T14:27:32.435Z,15.20
2017-12-20T14:29:59.750Z,16.47
2017-12-20T14:32:27.130Z,15.80
2017-12-20T14:34:54.524Z,14.87
2017-12-20T14:37:21.883Z,13.30
2017-12-20T14:39:49.592Z,12.90
2017-12-20T14:42:16.943Z,14.47
2017-12-20T14:44:44.644Z,12.23
2017-12-20T14:47:11.997Z,12.93
2017-12-20T14:49:39.319Z,12.57
2017-12-20T14:52:07.016Z,12.97
2017-12-20T14:54:34.375Z,12.57
2017-12-20T14:57:01.913Z,11.77
2017-12-20T14:59:29.283Z,12.83
2017-12-20T15:01:56.634Z,12.77
2017-12-20T15:04:24.088Z,13.67
2017-12-20T15:06:51.756Z,15.53
2017-12-20T15:09:19.146Z,13.87
2017-12-20T15:11:46.785Z,14.57
2017-12-20T15:14:14.443Z,14.57
2017-12-20T15:16:42.170Z,14.50
2017-12-20T15:19:09.620Z,12.63
2017-12-20T15:21:36.932Z,12.70
2017-12-20T15:24:04.431Z,13.83
2017-12-20T15:26:31.829Z,14.30
2017-12-20T15:28:59.203Z,15.20
2017-12-20T15:31:26.611Z,12.13
2017-12-20T15:33:54.347Z,13.50
2017-12-20T15:36:21.663Z,13.37
2017-12-20T15:38:49.339Z,13.30
2017-12-20T15:41:16.987Z,13.27
2017-12-20T15:43:44.690Z,14.20
2017-12-20T15:46:12.007Z,13.40
2017-12-20T15:48:39.651Z,17.80
2017-12-20T15:51:07.010Z,15.50
2017-12-20T15:53:34.334Z,14.70
2017-12-20T15:56:02.024Z,14.07
2017-12-20T15:58:29.381Z,13.07
2017-12-20T16:00:57.039Z,13.90
2017-12-20T16:03:24.354Z,15.20
2017-12-20T16:05:51.819Z,14.87
2017-12-20T16:08:19.255Z,15.57
2017-12-20T16:10:47.069Z,16.27
2017-12-20T16:13:14.428Z,16.30
2017-12-20T16:15:41.748Z,14.50
2017-12-20T16:18:09.442Z,15.97
2017-12-20T16:20:36.805Z,14.90
2017-12-20T16:23:04.498Z,16.57
2017-12-20T16:25:31.868Z,15.50
2017-12-20T16:27:59.552Z,15.40
2017-12-20T16:30:26.861Z,16.17
2017-12-20T16:32:54.518Z,17.67
2017-12-20T16:35:22.166Z,18.23
2017-12-20T16:37:49.815Z,16.53
2017-12-20T16:40:17.220Z,16.50
2017-12-20T16:42:44.534Z,16.63
2017-12-20T16:45:12.198Z,15.97
2017-12-20T16:47:39.557Z,17.50
2017-12-20T16:50:07.206Z,18.07
2017-12-20T16:52:34.862Z,18.37
2017-12-20T16:55:02.239Z,17.47
2017-12-20T16:57:29.591Z,18.40
2017-12-20T16:59:57.226Z,17.17
2017-12-20T17:02:24.581Z,17.40
2017-12-20T17:04:51.902Z,18.87
2017-12-20T17:07:19.355Z,17.87
2017-12-20T17:09:46.682Z,17.07
2017-12-20T17:12:14.232Z,19.10
2017-12-20T17:14:41.936Z,18.43
2017-12-20T17:17:09.635Z,18.90
2017-12-20T17:19:37.003Z,18.20
2017-12-20T17:22:04.715Z,18.60
2017-12-20T17:24:32.040Z,18.10
2017-12-20T17:26:59.666Z,17.93
2017-12-20T17:29:27.029Z,16.43
2017-12-20T17:31:54.691Z,20.40
2017-12-20T17:34:22.355Z,18.53
2017-12-20T17:36:49.718Z,18.90
2017-12-20T17:39:17.366Z,18.80
2017-12-20T17:41:44.680Z,18.27
2017-12-20T17:44:12.418Z,18.50
2017-12-20T17:46:40.142Z,20.50
2017-12-20T17:49:07.463Z,21.03
2017-12-20T17:51:35.203Z,20.40
2017-12-20T17:54:02.539Z,18.33
2017-12-20T17:56:30.098Z,19.60
2017-12-20T17:58:57.820Z,19.73
2017-12-20T18:01:25.512Z,19.87
2017-12-20T18:03:54.170Z,20.80
2017-12-20T18:06:21.686Z,21.33
2017-12-20T18:08:49.043Z,20.73
2017-12-20T18:11:17.342Z,21.03
2017-12-20T18:13:45.056Z,20.47
2017-12-20T18:16:12.455Z,20.73
2017-12-20T18:18:41.162Z,21.67
2017-12-20T18:21:08.542Z,21.87
2017-12-20T18:23:36.242Z,22.27
2017-12-20T18:26:03.607Z,24.10
2017-12-20T18:28:30.934Z,24.00
2017-12-20T18:30:58.568Z,24.10
2017-12-20T18:33:25.946Z,25.10
2017-12-20T18:35:53.769Z,25.70
2017-12-20T18:38:21.450Z,22.77
2017-12-20T18:40:48.833Z,23.40
2017-12-20T18:43:16.143Z,23.97
2017-12-20T18:45:43.464Z,23.10
2017-12-20T18:48:10.827Z,23.17
2017-12-20T18:50:38.154Z,23.60
2017-12-20T18:53:05.466Z,24.40
2017-12-20T18:55:32.815Z,24.00
2017-12-20T18:58:00.196Z,25.10
2017-12-20T19:00:27.688Z,27.13
2017-12-20T19:02:55.029Z,23.37
2017-12-20T19:05:22.576Z,24.90
2017-12-20T19:07:50.202Z,23.40
2017-12-20T19:10:17.540Z,24.40
2017-12-20T19:12:45.520Z,26.13
2017-12-20T19:15:13.381Z,28.43
2017-12-20T19:17:40.706Z,25.33
2017-12-20T19:20:08.028Z,26.77
2017-12-20T19:22:35.636Z,24.20
2017-12-20T19:25:03.482Z,23.40
2017-12-20T19:27:30.853Z,23.33
2017-12-20T19:29:58.155Z,24.93
2017-12-20T19:32:25.851Z,23.67
2017-12-20T19:34:53.462Z,23.90
2017-12-20T19:37:20.892Z,24.63
2017-12-20T19:39:48.345Z,25.23
2017-12-20T19:42:16.081Z,24.83
2017-12-20T19:44:43.727Z,24.73
2017-12-20T19:47:11.487Z,26.40
2017-12-20T19:49:38.869Z,28.53
2017-12-20T19:52:06.211Z,30.07
2017-12-20T19:54:33.898Z,28.20
2017-12-20T19:57:01.219Z,28.03
2017-12-20T19:59:28.877Z,25.23
2017-12-20T20:01:57.083Z,26.03
2017-12-20T20:04:24.455Z,25.60
2017-12-20T20:06:51.783Z,26.20
2017-12-20T20:09:19.102Z,22.80
2017-12-20T20:11:46.867Z,27.20
2017-12-20T20:14:14.199Z,25.50
2017-12-20T20:16:41.962Z,24.53
2017-12-20T20:19:09.684Z,25.73
2017-12-20T20:21:37.007Z,24.07
2017-12-20T20:24:04.358Z,24.17
2017-12-20T20:26:32.039Z,22.77
2017-12-20T20:28:59.671Z,24.40
2017-12-20T20:31:27.015Z,23.87
2017-12-20T20:33:54.419Z,26.20
2017-12-20T20:36:22.035Z,25.17
2017-12-20T20:38:49.466Z,24.67
2017-12-20T20:41:16.874Z,23.73
2017-12-20T20:43:44.195Z,24.17
2017-12-20T20:46:11.613Z,24.17
2017-12-20T20:48:38.921Z,25.27
2017-12-20T20:51:06.248Z,24.63
2017-12-20T20:53:33.816Z,24.63
2017-12-20T20:56:01.211Z,24.53
2017-12-20T20:58:28.864Z,25.27
2017-12-20T21:00:56.572Z,25.00
2017-12-20T21:03:24.016Z,25.90
2017-12-20T21:05:51.340Z,31.00
2017-12-20T21:08:18.834Z,24.20
2017-12-20T21:10:46.297Z,29.23
2017-12-20T21:13:13.705Z,27.70
2017-12-20T21:15:41.063Z,30.57
2017-12-20T21:18:08.719Z,34.20
2017-12-20T21:20:36.371Z,24.60
2017-12-20T21:23:03.740Z,24.10
2017-12-20T21:25:31.385Z,24.83
2017-12-20T21:27:58.707Z,24.57
2017-12-20T21:30:26.158Z,25.90
2017-12-20T21:32:53.858Z,24.40
2017-12-20T21:35:21.179Z,24.53
2017-12-20T21:37:48.531Z,25.17
2017-12-20T21:40:16.245Z,25.30
2017-12-20T21:42:43.894Z,25.37
2017-12-20T21:45:11.261Z,23.70
2017-12-20T21:47:38.920Z,24.73
2017-12-20T21:50:06.235Z,26.00
2017-12-20T21:52:33.971Z,24.47
2017-12-20T21:55:01.586Z,25.63
2017-12-20T21:57:28.915Z,23.67
2017-12-20T21:59:56.351Z,24.27
2017-12-20T22:02:23.676Z,24.27
2017-12-20T22:04:51.175Z,23.53
2017-12-20T22:07:18.902Z,24.67
2017-12-20T22:09:46.282Z,28.37
2017-12-20T22:12:13.555Z,27.87
2017-12-20T22:14:41.602Z,25.90
2017-12-20T22:17:08.927Z,25.90
2017-12-20T22:19:36.596Z,27.83
2017-12-20T22:22:03.934Z,26.43
2017-12-20T22:24:31.575Z,26.67
2017-12-20T22:26:58.938Z,27.13
2017-12-20T22:29:26.255Z,27.27
2017-12-20T22:31:53.577Z,27.37
2017-12-20T22:34:21.242Z,26.70
2017-12-20T22:36:48.863Z,25.20
2017-12-20T22:39:16.227Z,27.77
2017-12-20T22:41:43.599Z,27.63
2017-12-20T22:44:11.235Z,26.83
2017-12-20T22:46:38.561Z,26.10
2017-12-20T22:49:06.307Z,27.50
2017-12-20T22:51:33.627Z,26.80
2017-12-20T22:54:01.273Z,27.33
2017-12-20T22:56:28.630Z,26.47
2017-12-20T22:58:55.943Z,25.90
2017-12-20T23:01:23.639Z,27.50
2017-12-20T23:03:51.009Z,26.50
2017-12-20T23:06:18.558Z,25.87
2017-12-20T23:08:45.879Z,26.23
2017-12-20T23:11:13.609Z,25.90
2017-12-20T23:13:41.011Z,24.20
2017-12-20T23:16:08.431Z,26.43
2017-12-20T23:18:35.804Z,25.27
2017-12-20T23:21:03.499Z,26.30
2017-12-20T23:23:30.822Z,24.57
2017-12-20T23:25:58.403Z,24.10
2017-12-20T23:28:25.798Z,25.07
2017-12-20T23:30:53.134Z,21.33
2017-12-20T23:33:20.503Z,24.37
2017-12-20T23:35:47.816Z,24.20
2017-12-20T23:38:15.194Z,22.57
2017-12-20T23:40:42.554Z,22.07
2017-12-20T23:43:10.050Z,21.20
2017-12-20T23:45:37.380Z,21.63
2017-12-20T23:48:05.073Z,20.93
2017-12-20T23:50:32.390Z,20.80
2017-12-20T23:53:00.075Z,21.10
2017-12-20T23:55:27.899Z,20.90
2017-12-20T23:57:55.227Z,17.87
